Time;durP1;ratioP1;P1;durP2;ratioP2;P2;SDS_P1;SDS_P2;PMS_P1;PMS_P2;Temp;Humidity;BMP_temperature;BMP_pressure;BME280_temperature;BME280_humidity;BME280_pressure;Samples;Min_cycle;Max_cycle;Signal;HPM_P1;HPM_P2
2023/08/16 00:02:33;;;;;;;12.25;5.45;;;;;;;20.74;100.00;100012.13;12228925;19;20090;-85
2023/08/16 00:06:35;;;;;;;10.85;5.10;;;;;;;20.76;100.00;100009.81;12231416;19;20007;-84
2023/08/16 00:10:37;;;;;;;13.45;5.20;;;;;;;20.73;100.00;100016.06;12227163;19;20021;-85
2023/08/16 00:14:39;;;;;;;12.15;6.53;;;;;;;20.70;100.00;100019.47;12230269;19;20619;-85
2023/08/16 00:18:41;;;;;;;9.52;5.15;;;;;;;20.62;100.00;100020.25;12230662;19;20077;-83
2023/08/16 00:22:43;;;;;;;13.00;7.03;;;;;;;20.58;100.00;100005.19;12228742;19;20014;-83
2023/08/16 00:26:45;;;;;;;8.35;5.70;;;;;;;20.46;100.00;100000.06;12229423;19;20165;-85
2023/08/16 00:30:51;;;;;;;7.83;5.20;;;;;;;20.39;100.00;100006.09;12219903;19;20026;-85
2023/08/16 00:34:52;;;;;;;9.25;5.40;;;;;;;20.40;100.00;100004.13;12227618;19;20288;-85
2023/08/16 00:38:54;;;;;;;10.80;5.38;;;;;;;20.36;100.00;100003.91;12218902;19;20018;-83
2023/08/16 00:42:56;;;;;;;10.63;5.37;;;;;;;20.34;100.00;100005.38;12224597;19;20010;-84
2023/08/16 00:46:58;;;;;;;8.10;4.97;;;;;;;20.39;100.00;100000.50;12227986;19;20778;-84
2023/08/16 00:51:02;;;;;;;10.75;5.15;;;;;;;20.37;100.00;100001.94;12240917;19;20014;-81
2023/08/16 00:55:06;;;;;;;9.25;5.70;;;;;;;20.39;100.00;100006.09;12252412;19;20015;-84
2023/08/16 00:59:10;;;;;;;10.48;5.60;;;;;;;20.42;100.00;99999.88;12231860;19;20039;-84
2023/08/16 01:03:12;;;;;;;14.77;6.15;;;;;;;20.42;100.00;99990.66;12232086;19;20029;-85
2023/08/16 01:07:14;;;;;;;10.30;5.87;;;;;;;20.45;100.00;99990.03;12229151;19;20093;-85
2023/08/16 01:11:23;;;;;;;14.83;7.13;;;;;;;20.45;100.00;99984.44;12231253;19;20019;-84
2023/08/16 01:15:32;;;;;;;10.45;6.63;;;;;;;20.43;100.00;99978.31;12232027;19;20011;-84
2023/08/16 01:19:35;;;;;;;11.93;7.03;;;;;;;20.44;100.00;99982.78;12229861;19;20021;-85
2023/08/16 01:24:06;;;;;;;17.13;6.68;;;;;;;20.41;100.00;99964.63;12239211;19;20014;-85
2023/08/16 01:28:10;;;;;;;10.10;7.13;;;;;;;20.38;100.00;99973.66;12242298;19;20014;-85
2023/08/16 01:32:12;;;;;;;11.98;8.35;;;;;;;20.34;100.00;99981.00;12241280;19;20271;-85
2023/08/16 01:36:14;;;;;;;12.00;8.00;;;;;;;20.31;100.00;99978.81;12238229;19;20354;-85
2023/08/16 01:40:18;;;;;;;10.90;7.85;;;;;;;20.30;100.00;99982.78;12236147;19;20342;-84
2023/08/16 01:44:21;;;;;;;11.60;7.95;;;;;;;20.31;100.00;99981.63;12239363;19;20011;-82
2023/08/16 01:48:23;;;;;;;13.10;7.82;;;;;;;20.32;100.00;99993.69;12237535;19;20376;-85
2023/08/16 01:52:26;;;;;;;;;;;;;;;20.31;100.00;99992.81;12236018;19;20014;-85
2023/08/16 01:56:28;;;;;;;13.88;7.85;;;;;;;20.33;100.00;99996.16;12239618;19;19922;-82
2023/08/16 02:00:30;;;;;;;11.90;7.63;;;;;;;20.35;100.00;100001.44;12237780;19;20753;-85
2023/08/16 02:04:31;;;;;;;12.80;7.40;;;;;;;20.35;100.00;99993.88;12233308;19;20007;-83
2023/08/16 02:08:33;;;;;;;12.00;7.53;;;;;;;20.38;100.00;99987.66;12234698;19;20029;-82
2023/08/16 02:12:35;;;;;;;11.47;7.70;;;;;;;20.35;100.00;99988.28;12233600;19;20015;-84
2023/08/16 02:16:39;;;;;;;11.57;7.78;;;;;;;20.33;100.00;99984.94;12235131;19;20042;-84
2023/08/16 02:20:42;;;;;;;13.75;7.15;;;;;;;20.32;100.00;99991.69;12232889;19;20068;-85
2023/08/16 02:24:44;;;;;;;14.93;8.03;;;;;;;20.30;100.00;99974.38;12233884;19;20043;-84
2023/08/16 02:28:48;;;;;;;15.40;7.37;;;;;;;20.31;100.00;99986.41;12239629;19;20018;-84
2023/08/16 02:32:50;;;;;;;12.07;7.97;;;;;;;20.28;100.00;99982.25;12231897;19;20013;-84
2023/08/16 02:36:52;;;;;;;19.95;9.18;;;;;;;20.32;100.00;99982.47;12234630;19;20073;-84
2023/08/16 02:40:54;;;;;;;15.40;9.63;;;;;;;20.29;100.00;99983.94;12232424;19;20459;-83
2023/08/16 02:44:56;;;;;;;15.20;9.07;;;;;;;20.27;100.00;99975.00;12234860;19;20006;-81
2023/08/16 02:48:58;;;;;;;17.93;10.93;;;;;;;20.33;100.00;99978.53;12234012;19;20027;-84
2023/08/16 02:53:03;;;;;;;17.58;10.45;;;;;;;20.38;100.00;99981.22;12230894;19;20497;-84
2023/08/16 02:57:05;;;;;;;16.65;9.85;;;;;;;20.41;100.00;99984.22;12232417;19;20354;-84
2023/08/16 03:01:06;;;;;;;23.90;10.43;;;;;;;20.42;100.00;99982.25;12231571;19;20007;-83
2023/08/16 03:05:09;;;;;;;17.70;8.53;;;;;;;20.44;100.00;99978.00;12232307;19;20034;-82
2023/08/16 03:09:11;;;;;;;16.48;8.50;;;;;;;20.49;100.00;99966.72;12233660;19;20015;-84
2023/08/16 03:13:13;;;;;;;22.03;12.70;;;;;;;20.63;100.00;99961.13;12230088;19;20010;-84
2023/08/16 03:17:15;;;;;;;22.83;11.55;;;;;;;20.75;100.00;99970.94;12229595;19;20018;-83
2023/08/16 03:21:17;;;;;;;20.53;10.27;;;;;;;20.83;100.00;99971.03;12229172;19;20006;-84
2023/08/16 03:25:19;;;;;;;15.60;9.23;;;;;;;20.90;100.00;99977.03;12230413;19;20019;-84
2023/08/16 03:29:22;;;;;;;17.15;9.25;;;;;;;21.04;100.00;99970.59;12233450;19;20021;-84
2023/08/16 03:33:24;;;;;;;20.13;10.60;;;;;;;21.10;100.00;99974.91;12232825;19;20358;-85
2023/08/16 03:37:28;;;;;;;20.85;9.65;;;;;;;21.18;100.00;99982.56;12229338;19;20010;-85
2023/08/16 03:41:32;;;;;;;30.13;17.48;;;;;;;21.29;100.00;99975.56;12228494;19;20038;-84
2023/08/16 03:45:35;;;;;;;19.73;12.23;;;;;;;21.43;100.00;99983.13;12229370;19;20018;-85
2023/08/16 03:49:38;;;;;;;23.05;14.98;;;;;;;21.49;100.00;99981.84;12233212;19;20038;-84
2023/08/16 03:53:40;;;;;;;15.87;10.60;;;;;;;21.52;100.00;100003.66;12229140;19;20014;-83
2023/08/16 03:57:43;;;;;;;17.00;10.95;;;;;;;21.55;100.00;100003.00;12230603;19;20033;-84
2023/08/16 04:01:45;;;;;;;16.92;10.75;;;;;;;21.52;100.00;99995.22;12230020;19;20473;-84
2023/08/16 04:05:47;;;;;;;24.60;12.77;;;;;;;21.54;100.00;99990.97;12229050;19;20006;-84
2023/08/16 04:09:49;;;;;;;19.98;12.35;;;;;;;21.54;100.00;99995.75;12230927;19;20010;-83
2023/08/16 04:13:51;;;;;;;15.95;9.77;;;;;;;21.58;100.00;99994.78;12229785;19;20490;-83
2023/08/16 04:17:54;;;;;;;14.95;9.40;;;;;;;21.66;100.00;100001.59;12227757;19;20036;-85
2023/08/16 04:21:56;;;;;;;16.83;10.60;;;;;;;21.68;100.00;100007.72;12231220;19;20034;-84
2023/08/16 04:25:57;;;;;;;16.73;10.48;;;;;;;21.75;100.00;100002.50;12230695;19;20031;-84
2023/08/16 04:29:59;;;;;;;15.63;8.70;;;;;;;21.75;100.00;100008.09;12234511;19;20039;-82
2023/08/16 04:34:01;;;;;;;13.70;8.68;;;;;;;21.78;100.00;100010.28;12232521;19;20474;-84
2023/08/16 04:38:03;;;;;;;13.63;8.03;;;;;;;21.81;100.00;100011.59;12230197;19;20014;-85
2023/08/16 04:42:05;;;;;;;13.50;8.10;;;;;;;21.84;100.00;100011.78;12229416;19;20717;-85
2023/08/16 04:46:07;;;;;;;13.97;9.00;;;;;;;21.87;100.00;100021.53;12233349;19;20022;-85
2023/08/16 04:50:10;;;;;;;19.27;10.25;;;;;;;21.87;100.00;100015.13;12229039;19;20046;-85
2023/08/16 04:54:12;;;;;;;18.67;9.23;;;;;;;21.89;100.00;100024.00;12230805;19;20011;-83
2023/08/16 04:58:15;;;;;;;23.85;11.68;;;;;;;21.93;100.00;100019.44;12233940;19;20093;-83
2023/08/16 05:02:22;;;;;;;22.98;12.45;;;;;;;21.96;100.00;100016.00;12227846;19;20123;-84
2023/08/16 05:06:26;;;;;;;37.28;14.45;;;;;;;22.00;100.00;100008.56;12228747;19;20011;-84
2023/08/16 05:10:28;;;;;;;36.70;15.37;;;;;;;22.10;100.00;100011.13;12228907;19;20034;-84
2023/08/16 05:14:30;;;;;;;32.90;15.47;;;;;;;22.18;100.00;99993.50;12233570;19;20007;-85
2023/08/16 05:18:32;;;;;;;39.78;14.63;;;;;;;22.24;100.00;99995.03;12231368;19;20014;-85
2023/08/16 05:22:34;;;;;;;36.73;14.80;;;;;;;22.31;100.00;100014.22;12228398;19;20343;-86
2023/08/16 05:26:35;;;;;;;38.13;15.60;;;;;;;22.30;100.00;100012.56;12234487;19;20430;-83
2023/08/16 05:30:37;;;;;;;32.87;14.83;;;;;;;22.31;100.00;100008.63;12231325;19;20006;-85
2023/08/16 05:34:41;;;;;;;31.67;13.85;;;;;;;22.33;100.00;100011.09;12235090;19;20024;-83
2023/08/16 05:38:42;;;;;;;28.87;12.17;;;;;;;22.27;100.00;100016.00;12232665;19;20018;-84
2023/08/16 05:42:45;;;;;;;;;;;;;;;22.21;100.00;100008.88;12227731;19;20035;-85
2023/08/16 05:46:47;;;;;;;26.05;11.40;;;;;;;22.15;100.00;100004.53;12227188;19;19914;-85
2023/08/16 05:50:49;;;;;;;20.10;9.53;;;;;;;22.13;100.00;100001.19;12226484;19;20773;-85
2023/08/16 05:54:51;;;;;;;21.27;9.80;;;;;;;22.10;100.00;99994.28;12224960;19;20027;-85
2023/08/16 05:58:53;;;;;;;24.70;9.57;;;;;;;22.10;100.00;100011.13;12228392;19;20006;-84
2023/08/16 06:02:55;;;;;;;19.60;8.53;;;;;;;22.16;100.00;100009.84;12222011;19;20030;-85
2023/08/16 06:06:57;;;;;;;18.83;9.10;;;;;;;22.25;100.00;99993.88;12227932;19;20014;-82
2023/08/16 06:10:58;;;;;;;17.00;8.68;;;;;;;22.27;100.00;99985.94;12241409;19;20015;-84
2023/08/16 06:15:01;;;;;;;17.20;8.48;;;;;;;22.25;100.00;99960.22;12239216;19;20011;-83
2023/08/16 06:19:03;;;;;;;17.45;8.02;;;;;;;22.24;100.00;99949.28;12238550;19;20710;-84
2023/08/16 06:23:04;;;;;;;13.40;7.40;;;;;;;22.34;100.00;99951.81;12231633;19;20023;-84
2023/08/16 06:27:08;;;;;;;13.03;7.23;;;;;;;22.42;100.00;99961.41;12238856;19;20613;-82
2023/08/16 06:31:10;;;;;;;14.82;7.38;;;;;;;22.52;100.00;99975.16;12239398;19;20023;-84
2023/08/16 06:35:12;;;;;;;13.60;7.13;;;;;;;22.55;100.00;99985.75;12256251;19;20459;-84
2023/08/16 06:39:13;;;;;;;11.73;7.23;;;;;;;22.64;100.00;100009.06;12239994;19;20750;-85
2023/08/16 06:43:15;;;;;;;13.80;7.40;;;;;;;22.73;100.00;100014.72;12237796;19;20288;-85
2023/08/16 06:47:17;;;;;;;15.77;7.60;;;;;;;22.83;100.00;100010.75;12240059;19;20042;-86
2023/08/16 06:51:19;;;;;;;16.80;8.23;;;;;;;23.01;100.00;100026.53;12241376;19;20011;-81
2023/08/16 06:55:22;;;;;;;15.03;7.77;;;;;;;23.20;100.00;100040.25;12241492;19;20007;-85
2023/08/16 06:59:24;;;;;;;13.45;7.32;;;;;;;23.52;100.00;100049.38;12241826;19;20070;-85
2023/08/16 07:03:26;;;;;;;17.63;9.73;;;;;;;23.80;100.00;100045.13;12235867;19;20034;-85
2023/08/16 07:07:30;;;;;;;14.77;7.00;;;;;;;24.05;100.00;100037.78;12237842;19;20002;-85
2023/08/16 07:11:32;;;;;;;12.60;7.63;;;;;;;24.28;100.00;100038.38;12240803;19;20027;-81
2023/08/16 07:15:33;;;;;;;12.70;7.47;;;;;;;24.37;100.00;100035.53;12237559;19;20019;-85
2023/08/16 07:19:35;;;;;;;11.93;6.97;;;;;;;24.31;100.00;100040.50;12234632;19;20030;-83
2023/08/16 07:23:37;;;;;;;14.38;8.63;;;;;;;24.20;100.00;100039.22;12235268;19;20692;-85
2023/08/16 07:27:39;;;;;;;10.47;6.43;;;;;;;24.36;100.00;100045.13;12234716;19;20014;-84
2023/08/16 07:31:41;;;;;;;10.27;6.18;;;;;;;24.66;100.00;100034.78;12235695;19;20050;-85
2023/08/16 07:35:42;;;;;;;10.63;5.80;;;;;;;24.89;100.00;100040.94;12235315;19;20161;-84
2023/08/16 07:39:44;;;;;;;12.48;6.13;;;;;;;25.24;100.00;100041.56;12232439;19;20319;-83
2023/08/16 07:43:46;;;;;;;8.73;5.30;;;;;;;25.58;100.00;100036.00;12233347;19;20031;-84
2023/08/16 07:47:48;;;;;;;10.50;5.97;;;;;;;25.82;100.00;100024.84;12231905;19;20397;-85
2023/08/16 07:51:50;;;;;;;11.35;6.35;;;;;;;25.79;100.00;100042.47;12228981;19;20335;-85
2023/08/16 07:55:51;;;;;;;13.23;6.30;;;;;;;25.66;100.00;100037.91;12230415;19;20006;-86
2023/08/16 07:59:54;;;;;;;10.65;5.68;;;;;;;25.51;100.00;100039.38;12231823;19;20296;-85
2023/08/16 08:03:55;;;;;;;10.15;6.20;;;;;;;25.81;100.00;100042.09;12232391;19;20482;-86
2023/08/16 08:07:57;;;;;;;9.97;5.53;;;;;;;26.19;100.00;100039.06;12230249;19;20032;-84
2023/08/16 08:11:59;;;;;;;11.10;6.20;;;;;;;26.48;100.00;100042.91;12226688;19;20086;-84
2023/08/16 08:16:01;;;;;;;;;;;;;;;26.56;100.00;100041.97;12231281;19;20259;-83
2023/08/16 08:20:04;;;;;;;8.23;6.00;;;;;;;26.64;100.00;100048.72;12231417;19;19919;-85
2023/08/16 08:24:06;;;;;;;9.48;6.38;;;;;;;26.62;100.00;100048.22;12230289;19;20022;-86
2023/08/16 08:28:08;;;;;;;11.60;5.15;;;;;;;26.53;100.00;100059.63;12230239;19;20022;-85
2023/08/16 08:32:10;;;;;;;7.60;5.10;;;;;;;26.65;100.00;100065.31;12223544;19;20022;-84
2023/08/16 08:36:12;;;;;;;8.52;5.28;;;;;;;27.12;100.00;100064.84;12228253;19;20040;-83
2023/08/16 08:40:14;;;;;;;9.20;5.45;;;;;;;27.34;100.00;100068.38;12227693;19;20014;-86
2023/08/16 08:44:16;;;;;;;10.98;5.82;;;;;;;27.38;100.00;100075.78;12226702;19;20018;-85
2023/08/16 08:48:18;;;;;;;;;;;;;;;27.10;100.00;100072.88;12224146;19;20033;-84
2023/08/16 08:52:21;;;;;;;6.10;4.80;;;;;;;26.88;100.00;100076.16;12229582;19;19926;-85
2023/08/16 08:56:26;;;;;;;7.30;4.88;;;;;;;26.84;100.00;100075.22;12231777;19;20096;-85
2023/08/16 09:00:37;;;;;;;6.72;4.70;;;;;;;26.67;100.00;100082.75;12228428;19;20330;-84
2023/08/16 09:04:43;;;;;;;7.88;4.63;;;;;;;26.86;100.00;100070.88;12228852;19;20015;-84
2023/08/16 09:08:45;;;;;;;11.10;6.10;;;;;;;27.07;100.00;100073.56;12228688;19;20029;-84
2023/08/16 09:12:47;;;;;;;7.70;4.72;;;;;;;27.05;100.00;100071.09;12223880;19;20022;-84
2023/08/16 09:16:49;;;;;;;6.90;4.68;;;;;;;27.24;100.00;100067.66;12228355;19;20754;-85
2023/08/16 09:20:52;;;;;;;6.55;5.05;;;;;;;27.56;100.00;100070.69;12228956;19;20031;-85
2023/08/16 09:24:56;;;;;;;10.35;5.05;;;;;;;27.54;100.00;100077.88;12227018;19;20035;-85
2023/08/16 09:28:59;;;;;;;7.20;4.50;;;;;;;27.53;100.00;100060.06;12230869;19;20434;-83
2023/08/16 09:33:01;;;;;;;4.53;3.85;;;;;;;27.97;98.50;100048.03;12226847;19;20014;-85
2023/08/16 09:37:04;;;;;;;6.53;4.70;;;;;;;28.71;91.32;100056.94;12225794;19;20009;-84
2023/08/16 09:41:13;;;;;;;7.70;4.63;;;;;;;29.22;85.22;100046.44;12227603;19;20135;-86
2023/08/16 09:45:15;;;;;;;5.50;4.28;;;;;;;29.33;85.25;100041.00;12236942;19;20054;-85
2023/08/16 09:49:21;;;;;;;;;;;;;;;29.28;85.62;100042.13;12242662;19;20005;-85
2023/08/16 09:53:23;;;;;;;8.30;4.38;;;;;;;29.05;87.55;100041.97;12231813;19;19928;-86
2023/08/16 09:57:28;;;;;;;7.68;4.65;;;;;;;28.98;88.57;100040.97;12239435;19;20022;-86
2023/08/16 10:01:30;;;;;;;6.90;4.30;;;;;;;29.01;87.17;100041.06;12234655;19;20011;-84
2023/08/16 10:05:32;;;;;;;;;;;;;;;29.51;86.69;100036.56;12237710;19;20030;-85
2023/08/16 10:09:48;;;;;;;7.80;4.43;;;;;;;29.92;82.17;100039.03;12237219;19;19922;-85
2023/08/16 10:13:50;;;;;;;6.53;3.80;;;;;;;30.37;78.44;100029.78;12236416;19;20014;-87
2023/08/16 10:17:53;;;;;;;5.90;4.40;;;;;;;30.14;80.32;100020.38;12246085;19;20006;-85
2023/08/16 10:21:56;;;;;;;5.18;4.13;;;;;;;29.93;79.12;100023.63;12246057;19;20062;-85
2023/08/16 10:26:01;;;;;;;6.35;3.95;;;;;;;29.81;80.38;100024.63;12234422;19;20134;-83
2023/08/16 10:30:05;;;;;;;7.70;3.90;;;;;;;29.70;81.12;100026.41;12233682;19;20021;-84
2023/08/16 10:34:14;;;;;;;5.32;4.05;;;;;;;29.64;79.34;100008.03;12232476;19;20018;-85
2023/08/16 10:38:16;;;;;;;5.90;4.38;;;;;;;30.01;78.42;100004.69;12235024;19;20014;-85
2023/08/16 10:42:17;;;;;;;5.68;4.10;;;;;;;30.13;75.96;100016.72;12231995;19;20035;-86
2023/08/16 10:46:29;;;;;;;4.93;3.35;;;;;;;30.13;73.97;100015.88;12236141;19;20533;-86
2023/08/16 10:50:33;;;;;;;4.65;3.60;;;;;;;30.57;72.21;100012.63;12231478;19;20066;-84
2023/08/16 10:54:35;;;;;;;7.18;3.90;;;;;;;31.08;70.41;100004.56;12229743;19;20518;-86
2023/08/16 10:58:47;;;;;;;5.43;4.00;;;;;;;31.32;67.89;100003.28;12231303;19;20643;-85
2023/08/16 11:02:49;;;;;;;5.82;4.28;;;;;;;31.25;67.49;100010.88;12226703;19;20018;-85
2023/08/16 11:06:52;;;;;;;;;;;;;;;31.03;70.90;100006.91;12232345;19;20003;-86
2023/08/16 11:11:03;;;;;;;6.50;5.13;;;;;;;30.99;72.32;100003.19;12230956;19;20453;-85
2023/08/16 11:15:06;;;;;;;7.40;4.90;;;;;;;30.97;72.32;99999.91;12229636;19;20015;-86
2023/08/16 11:19:10;;;;;;;5.82;4.00;;;;;;;31.09;70.86;99994.81;12231787;19;20039;-85
2023/08/16 11:23:15;;;;;;;10.05;4.22;;;;;;;30.87;73.47;99990.81;12224654;19;20014;-86
2023/08/16 11:27:22;;;;;;;5.93;4.43;;;;;;;30.92;72.54;99991.69;12230747;19;20073;-86
2023/08/16 11:31:24;;;;;;;5.85;4.10;;;;;;;31.22;70.02;99995.38;12229564;19;20077;-86
2023/08/16 11:35:27;;;;;;;6.20;4.00;;;;;;;31.10;70.75;99987.09;12231975;19;20019;-83
2023/08/16 11:39:28;;;;;;;;;;;;;;;30.77;72.66;99988.59;12230511;19;20066;-82
2023/08/16 11:43:35;;;;;;;7.00;3.67;;;;;;;30.56;75.13;99974.03;12230001;19;19922;-86
2023/08/16 11:47:36;;;;;;;4.75;4.13;;;;;;;30.80;74.94;99973.63;12229047;19;20093;-85
2023/08/16 11:51:39;;;;;;;5.63;4.00;;;;;;;31.65;70.85;99969.50;12228065;19;20030;-86
2023/08/16 11:55:41;;;;;;;5.82;4.38;;;;;;;32.24;65.18;99976.28;12245597;19;20026;-84
2023/08/16 11:59:54;;;;;;;7.68;4.65;;;;;;;32.42;64.25;99970.72;12254490;19;20022;-84
2023/08/16 12:04:01;;;;;;;6.00;4.47;;;;;;;33.46;62.52;99969.41;12246042;19;20007;-86
2023/08/16 12:08:08;;;;;;;5.45;4.72;;;;;;;34.46;56.26;99951.72;12236754;19;20011;-86
2023/08/16 12:12:10;;;;;;;7.28;4.55;;;;;;;35.30;53.00;99954.06;12239804;19;20087;-86
2023/08/16 12:16:12;;;;;;;8.27;5.22;;;;;;;35.66;49.64;99954.72;12243769;19;20023;-86
2023/08/16 12:20:13;;;;;;;7.13;4.93;;;;;;;35.33;52.13;99941.75;12245192;19;20718;-86
2023/08/16 12:24:16;;;;;;;6.20;5.03;;;;;;;34.59;52.78;99938.66;12237161;19;20010;-86
2023/08/16 12:28:17;;;;;;;6.07;5.43;;;;;;;33.96;54.68;99932.44;12270372;19;20006;-84
2023/08/16 12:32:19;;;;;;;6.80;4.75;;;;;;;34.29;54.55;99929.66;12254089;19;20591;-86
2023/08/16 12:36:21;;;;;;;7.40;5.03;;;;;;;35.55;51.05;99925.34;12243665;19;20346;-86
2023/08/16 12:40:28;;;;;;;7.50;5.00;;;;;;;36.26;46.94;99915.44;12246623;19;20021;-83
2023/08/16 12:44:30;;;;;;;7.07;4.95;;;;;;;36.63;47.36;99917.59;12250144;19;20007;-87
2023/08/16 12:48:32;;;;;;;6.28;5.20;;;;;;;36.33;47.39;99917.44;12245016;19;20014;-86
2023/08/16 12:52:34;;;;;;;5.53;4.93;;;;;;;35.85;47.45;99915.34;12238536;19;20021;-84
2023/08/16 12:56:36;;;;;;;7.03;4.78;;;;;;;35.51;46.63;99908.09;12241198;19;20015;-87
2023/08/16 13:00:38;;;;;;;5.85;4.88;;;;;;;35.46;47.61;99904.84;12239678;19;20010;-86
2023/08/16 13:04:43;;;;;;;7.18;5.00;;;;;;;36.25;47.76;99905.22;12239051;19;20027;-87
2023/08/16 13:08:58;;;;;;;5.18;4.50;;;;;;;37.54;43.76;99889.47;12238079;19;20035;-86
2023/08/16 13:13:06;;;;;;;4.72;4.30;;;;;;;38.48;40.33;99892.53;12235998;19;20018;-87
2023/08/16 13:17:11;;;;;;;7.63;4.40;;;;;;;39.24;38.50;99889.84;12246329;19;20018;-85
2023/08/16 13:21:33;;;;;;;6.32;4.50;;;;;;;39.55;35.74;99884.63;12249320;19;20034;-85
2023/08/16 13:25:38;;;;;;;6.53;4.57;;;;;;;39.83;35.79;99879.47;12248792;19;20014;-87
2023/08/16 13:29:59;;;;;;;7.30;4.75;;;;;;;39.70;36.16;99873.59;12252915;19;20015;-87
2023/08/16 13:34:18;;;;;;;5.95;4.25;;;;;;;39.16;37.89;99873.94;12249222;19;20694;-88
2023/08/16 13:38:23;;;;;;;5.22;4.28;;;;;;;40.01;36.03;99871.22;12251003;19;20018;-85
2023/08/16 13:42:36;;;;;;;6.43;4.57;;;;;;;40.74;33.30;99873.88;12245882;19;20010;-88
2023/08/16 13:46:38;;;;;;;6.97;4.53;;;;;;;40.56;34.42;99862.78;12246390;19;20015;-87
2023/08/16 13:50:41;;;;;;;5.82;5.13;;;;;;;40.85;34.10;99862.03;12248691;19;20006;-86
2023/08/16 13:54:42;;;;;;;6.68;4.80;;;;;;;41.45;32.91;99850.75;12246190;19;20015;-87
2023/08/16 13:58:44;;;;;;;7.85;4.80;;;;;;;41.49;33.27;99844.88;12243466;19;20021;-87
2023/08/16 14:02:46;;;;;;;5.70;4.28;;;;;;;41.95;32.47;99848.38;12241717;19;20356;-86
2023/08/16 14:06:48;;;;;;;5.35;4.80;;;;;;;41.36;32.60;99851.44;12246096;19;20443;-88
2023/08/16 14:10:51;;;;;;;5.22;4.43;;;;;;;40.28;33.82;99849.97;12245152;19;20018;-87
2023/08/16 14:14:53;;;;;;;4.55;4.15;;;;;;;39.69;34.75;99854.66;12246277;19;20021;-87
2023/08/16 14:18:56;;;;;;;5.68;4.38;;;;;;;38.93;35.16;99834.50;12241034;19;20011;-87
2023/08/16 14:22:58;;;;;;;8.15;4.40;;;;;;;38.25;36.83;99838.66;12242100;19;20025;-86
2023/08/16 14:27:02;;;;;;;5.82;4.78;;;;;;;37.09;38.85;99832.97;12246396;19;20618;-86
2023/08/16 14:31:04;;;;;;;5.30;4.28;;;;;;;36.30;40.37;99837.97;12244999;19;20014;-88
2023/08/16 14:35:06;;;;;;;5.45;4.80;;;;;;;35.56;41.57;99835.25;12247290;19;20034;-87
2023/08/16 14:39:08;;;;;;;5.53;4.43;;;;;;;35.57;42.10;99834.81;12239121;19;20781;-86
2023/08/16 14:43:10;;;;;;;6.03;4.30;;;;;;;35.25;42.42;99828.44;12239589;19;20011;-87
2023/08/16 14:47:14;;;;;;;5.95;4.90;;;;;;;34.76;43.72;99828.22;12238563;19;20344;-87
2023/08/16 14:51:16;;;;;;;7.43;5.20;;;;;;;34.27;45.00;99824.25;12234396;19;20010;-85
2023/08/16 14:55:18;;;;;;;5.20;4.25;;;;;;;34.92;43.57;99825.72;12232675;19;20010;-86
2023/08/16 14:59:20;;;;;;;5.50;4.35;;;;;;;35.61;41.91;99823.34;12233207;19;20007;-88
2023/08/16 15:03:22;;;;;;;7.53;4.60;;;;;;;34.88;43.43;99819.19;12227502;19;20006;-86
2023/08/16 15:07:25;;;;;;;5.43;4.80;;;;;;;34.37;45.07;99816.88;12234920;19;20018;-85
2023/08/16 15:11:27;;;;;;;5.50;4.55;;;;;;;33.98;46.73;99812.78;12240795;19;20014;-84
2023/08/16 15:15:28;;;;;;;5.72;4.28;;;;;;;33.54;47.94;99811.13;12244350;19;20478;-85
2023/08/16 15:19:30;;;;;;;5.18;4.13;;;;;;;33.64;47.60;99808.69;12236045;19;20018;-84
2023/08/16 15:23:36;;;;;;;;;;;;;;;33.40;47.59;99807.41;12241057;19;20412;-85
2023/08/16 15:27:38;;;;;;;5.35;4.25;;;;;;;33.03;48.98;99799.97;12240053;19;19920;-86
2023/08/16 15:31:39;;;;;;;;;;;;;;;32.68;49.79;99816.50;12236639;19;20356;-86
2023/08/16 15:35:43;;;;;;;6.28;4.07;;;;;;;32.43;50.92;99804.13;12238114;19;19914;-84
2023/08/16 15:39:45;;;;;;;5.38;4.20;;;;;;;31.97;52.75;99796.88;12237473;19;20018;-85
2023/08/16 15:43:47;;;;;;;5.78;4.00;;;;;;;31.70;52.79;99790.53;12239258;19;20006;-86
2023/08/16 15:47:49;;;;;;;;;;;;;;;31.90;52.21;99791.13;12244236;19;20018;-86
2023/08/16 15:51:51;;;;;;;;;;;;;;;32.13;51.63;99792.94;12240406;19;19930;-85
2023/08/16 15:55:56;;;;;;;6.75;3.83;;;;;;;31.90;54.41;99773.22;12238255;19;19935;-85
2023/08/16 15:59:58;;;;;;;6.55;3.90;;;;;;;31.70;55.84;99773.44;12236637;19;20049;-85
2023/08/16 16:04:00;;;;;;;6.53;3.92;;;;;;;31.54;57.93;99770.88;12235881;19;20031;-84
2023/08/16 16:08:02;;;;;;;5.38;3.90;;;;;;;31.41;57.43;99778.06;12236221;19;20892;-84
2023/08/16 16:12:04;;;;;;;;;;;;;;;31.24;57.49;99773.00;12235995;19;20023;-85
2023/08/16 16:16:05;;;;;;;4.07;3.65;;;;;;;31.19;59.20;99771.28;12236216;19;19915;-85
2023/08/16 16:20:07;;;;;;;;;;;;;;;31.04;59.67;99758.94;12235371;19;20010;-86
2023/08/16 16:24:09;;;;;;;5.20;3.55;;;;;;;30.91;62.20;99753.91;12233921;19;19915;-86
2023/08/16 16:28:11;;;;;;;8.38;4.45;;;;;;;30.75;63.58;99759.78;12236719;19;20031;-85
2023/08/16 16:32:13;;;;;;;5.60;3.55;;;;;;;30.56;64.85;99760.78;12233131;19;20031;-81
2023/08/16 16:36:14;;;;;;;9.88;3.78;;;;;;;30.49;65.97;99769.19;12236430;19;21516;-85
2023/08/16 16:40:16;;;;;;;6.85;3.70;;;;;;;30.41;67.25;99776.81;12233949;19;20010;-84
2023/08/16 16:44:18;;;;;;;5.50;3.58;;;;;;;30.34;67.36;99771.03;12234951;19;20478;-85
2023/08/16 16:48:20;;;;;;;7.70;3.80;;;;;;;30.25;68.30;99762.78;12234407;19;20017;-84
2023/08/16 16:52:21;;;;;;;7.13;3.80;;;;;;;30.14;70.13;99756.09;12232844;19;20038;-84
2023/08/16 16:56:23;;;;;;;5.75;3.72;;;;;;;29.92;71.58;99750.09;12230689;19;20034;-85
2023/08/16 17:00:25;;;;;;;9.55;4.40;;;;;;;29.74;73.46;99760.34;12233987;19;20018;-84
2023/08/16 17:04:27;;;;;;;6.50;4.43;;;;;;;29.58;74.36;99762.50;12231296;19;20014;-85
2023/08/16 17:08:29;;;;;;;9.82;3.95;;;;;;;29.41;75.98;99747.59;12234569;19;20034;-85
2023/08/16 17:12:31;;;;;;;7.00;3.70;;;;;;;29.35;77.77;99740.59;12230944;19;20463;-85
2023/08/16 17:16:32;;;;;;;7.32;3.92;;;;;;;29.24;78.54;99739.56;12229926;19;20462;-85
2023/08/16 17:20:34;;;;;;;6.10;3.63;;;;;;;29.16;79.54;99727.28;12232319;19;20015;-85
2023/08/16 17:24:36;;;;;;;5.05;3.70;;;;;;;29.12;80.40;99720.75;12230331;19;20018;-86
2023/08/16 17:28:38;;;;;;;8.68;4.35;;;;;;;29.06;80.67;99710.88;12234383;19;20006;-85
2023/08/16 17:32:40;;;;;;;8.30;4.53;;;;;;;28.91;81.82;99708.94;12228928;19;20031;-85
2023/08/16 17:36:42;;;;;;;6.95;4.80;;;;;;;28.77;83.48;99710.31;12229900;19;20003;-86
2023/08/16 17:40:44;;;;;;;7.45;4.97;;;;;;;28.57;84.65;99714.38;12231826;19;20011;-85
2023/08/16 17:44:46;;;;;;;10.07;5.13;;;;;;;28.37;87.22;99710.66;12232163;19;20019;-85
2023/08/16 17:48:48;;;;;;;7.55;4.93;;;;;;;28.21;87.44;99707.09;12232366;19;20620;-86
2023/08/16 17:52:49;;;;;;;5.22;3.88;;;;;;;28.10;87.99;99710.50;12227313;19;20129;-85
2023/08/16 17:56:51;;;;;;;4.40;3.45;;;;;;;27.99;89.12;99705.78;12231898;19;20014;-86
2023/08/16 18:00:55;;;;;;;15.75;9.20;;;;;;;27.87;91.14;99710.41;12230587;19;20027;-86
2023/08/16 18:04:57;;;;;;;6.50;4.03;;;;;;;27.80;90.76;99718.72;12242964;19;20021;-85
2023/08/16 18:08:59;;;;;;;;;;;;;;;27.70;92.15;99720.06;12246210;19;20438;-84
2023/08/16 18:13:01;;;;;;;9.77;4.80;;;;;;;27.61;94.24;99730.78;12239692;19;19959;-85
2023/08/16 18:17:03;;;;;;;6.45;4.28;;;;;;;27.50;95.74;99758.78;12239806;19;20668;-84
2023/08/16 18:21:05;;;;;;;5.30;3.85;;;;;;;27.50;94.96;99755.97;12239406;19;20015;-86
2023/08/16 18:25:06;;;;;;;7.43;4.30;;;;;;;27.47;95.66;99756.69;12242743;19;20022;-86
2023/08/16 18:29:08;;;;;;;6.80;4.30;;;;;;;27.38;97.61;99744.75;12243707;19;20487;-85
2023/08/16 18:33:10;;;;;;;9.95;4.43;;;;;;;27.33;99.50;99758.31;12241885;19;20465;-86
2023/08/16 18:37:12;;;;;;;5.88;3.67;;;;;;;27.20;100.00;99766.91;12273723;19;20006;-85